Terminal Aerodrome Forecast
Issued by NWS

Home | Current Version | Previous Version | Text Only | Print | Product List | Glossary Off
Versions: 1 2 3 4 5 6 7 8 9 10 11 12 13 14 15 16 17 18 19

000
FTUS43 KMPX 170528
TAFRNH
TAF
KRNH 170528Z 1706/1806 00000KT P6SM SCT008
     FM170800 00000KT 4SM BR OVC008
     FM171200 00000KT 2SM BR OVC004
     FM171900 00000KT 6SM BR OVC008=

USA.gov is the U.S. government's official web portal to all federal, state and local government web resources and services.